Airfield :
LOGIN :

Register | Disclaimer

   EN    FR    IT 

 










Legend :    VFR   Marginal VFR   IFR   Intensive IFR   Very Intensive IFR
Visi :
Ceiling :
>= 8 km
>= 3000ft
5 to 8 km
1000 to 3000 ft
1500m to 5 km
500 to 1000 ft
800 to 1500m
200 to 500 ft
< 800m
< 200 ft
Symbols :   Thunderstorms  Fog  Heavy snow  Heavy precipitations  Wind > 20 kt
SIGMETs :     Misc.  Thunderstorms  Icing  Turbulence  Mountain Waves  Volcanic Ashes






- Airport Elevation : 348 ft
- IATA code : LDV


LFRJ - Landivisiau

CURRENT METAR :
  • 271730Z AUTO 32006KT 9999 FEW027 06/02 Q1015 BECMG 18010KT

EXPIRED METARs :
  • 271700Z AUTO 32009KT 9999 SCT028 BKN036 BKN043 07/03 Q1015 NOSIG
  • 271630Z AUTO 33007KT 9999 FEW030 BKN036 08/03 Q1014 NOSIG
  • 271600Z AUTO 32010KT 9999 SCT035 SCT041 08/02 Q1014 NOSIG
  • 271530Z AUTO 33010KT 300V360 9999 BKN034 09/02 Q1013 NOSIG
  • 271500Z AUTO 33014KT 9999 BKN033 BKN039 09/03 Q1013 NOSIG

TAF TAF LFRJ
Valid from the 27 at 18:00 until the 28 at 03:00 UTC


271700Z 2718/2803 30011KT 9999 SCT025
BECMG 2718/2720 18010KT CAVOK
BECMG 2801/2803 SCT010 BKN025



MET'MAP, your aeronautical weather chart ! - Copyright ORBIFLY December 2007 - Disclaimer

ORBIFLY MET'MAP TEAM :

Programming & Development : Alexandra Zaïnal
Concept & original design : Baudouin d'Aumeries
Assistance for programming : Marc-Olivier Méhu
Technical & hardware support : Manuel Goepfert

Contact : metmap@orbifly.com




SOURCES & CREDITS :

   NOAA